Terminal Aerodrome Forecast
Issued by NWS Boise, ID

Home | Current Version | Previous Version | Text Only | Print | Product List | Glossary On
Versions: 1 2 3 4 5 6 7 8 9 10 11 12 13 14 15 16 17 18 19 20 21 22 23 24 25 26 27 28 29 30 31 32 33 34 35 36 37 38 39 40
000
FTUS45 KBOI 082259 AAB
TAFBOI
TAF AMD
KBOI 082259Z 0823/0918 15009KT 2SM -SHSN BR SCT015 OVC025
     FM090200 14012KT P6SM VCSH SCT015 OVC025
     FM091400 13009KT 3SM -RASN OVC020=

USA.gov is the U.S. government's official web portal to all federal, state and local government web resources and services.